createdAt,value
2022-11-20T00:01:58.466Z,12.13
2022-11-20T00:04:26.680Z,12.10
2022-11-20T00:06:54.748Z,12.07
2022-11-20T00:09:29.104Z,12.03
2022-11-20T00:11:57.279Z,11.98
2022-11-20T00:14:25.277Z,12.02
2022-11-20T00:16:53.246Z,11.94
2022-11-20T00:19:21.839Z,12.04
2022-11-20T00:21:52.496Z,12.08
2022-11-20T00:24:20.688Z,12.10
2022-11-20T00:26:49.050Z,12.10
2022-11-20T00:29:16.858Z,12.09
2022-11-20T00:31:44.736Z,12.06
2022-11-20T00:34:13.197Z,12.00
2022-11-20T00:36:41.010Z,11.96
2022-11-20T00:39:08.912Z,12.06
2022-11-20T00:41:37.001Z,12.02
2022-11-20T00:44:05.717Z,12.04
2022-11-20T00:46:33.765Z,11.98
2022-11-20T00:49:02.086Z,12.04
2022-11-20T00:51:30.348Z,11.90
2022-11-20T00:54:01.165Z,11.98
2022-11-20T00:56:29.855Z,11.99
2022-11-20T00:59:02.071Z,11.96
2022-11-20T01:01:31.404Z,12.05
2022-11-20T01:04:01.246Z,12.09
2022-11-20T01:06:37.526Z,12.13
2022-11-20T01:09:11.110Z,12.10
2022-11-20T01:11:43.854Z,12.11
2022-11-20T01:14:19.015Z,12.07
2022-11-20T01:16:51.376Z,12.15
2022-11-20T01:19:23.287Z,12.12
2022-11-20T01:21:55.015Z,12.20
2022-11-20T01:24:24.129Z,12.17
2022-11-20T01:26:53.058Z,12.20
2022-11-20T01:29:24.594Z,12.17
2022-11-20T01:31:53.793Z,12.17
2022-11-20T01:34:23.450Z,12.14
2022-11-20T01:36:53.052Z,12.09
2022-11-20T01:39:27.415Z,12.12
2022-11-20T01:42:15.682Z,12.07
2022-11-20T01:44:52.807Z,12.11
2022-11-20T01:47:45.066Z,12.10
2022-11-20T01:50:20.684Z,11.96
2022-11-20T01:53:12.612Z,12.11
2022-11-20T01:55:50.109Z,12.09
2022-11-20T01:58:26.222Z,12.13
2022-11-20T02:00:54.137Z,12.21
2022-11-20T02:03:22.270Z,12.24
2022-11-20T02:05:59.113Z,12.27
2022-11-20T02:08:27.825Z,12.32
2022-11-20T02:10:55.966Z,12.30
2022-11-20T02:13:45.578Z,12.33
2022-11-20T02:16:28.825Z,12.39
2022-11-20T02:19:00.889Z,12.43
2022-11-20T02:21:50.387Z,12.49
2022-11-20T02:24:23.726Z,12.46
2022-11-20T02:26:59.190Z,12.44
2022-11-20T02:30:04.534Z,12.41
2022-11-20T02:32:37.588Z,12.39
2022-11-20T02:35:31.658Z,12.43
2022-11-20T02:38:03.503Z,12.41
2022-11-20T02:40:31.565Z,12.40
2022-11-20T02:42:59.476Z,12.42
2022-11-20T02:45:27.418Z,12.44
2022-11-20T02:47:55.770Z,12.48
2022-11-20T02:50:23.776Z,12.46
2022-11-20T02:52:51.679Z,12.59
2022-11-20T02:55:20.206Z,12.60
2022-11-20T02:57:47.920Z,12.60
2022-11-20T03:00:16.274Z,12.65
2022-11-20T03:02:44.293Z,12.60
2022-11-20T03:05:13.545Z,12.64
2022-11-20T03:07:41.915Z,12.64
2022-11-20T03:10:10.515Z,12.64
2022-11-20T03:12:38.242Z,12.63
2022-11-20T03:15:06.694Z,12.59
2022-11-20T03:17:34.542Z,12.62
2022-11-20T03:20:03.099Z,12.62
2022-11-20T03:22:31.899Z,12.62
2022-11-20T03:25:00.105Z,12.61
2022-11-20T03:27:33.870Z,12.65
2022-11-20T03:30:02.571Z,12.66
2022-11-20T03:32:30.895Z,12.68
2022-11-20T03:34:59.166Z,12.67
2022-11-20T03:37:28.177Z,12.73
2022-11-20T03:39:56.299Z,12.75
2022-11-20T03:42:45.668Z,12.66
2022-11-20T03:45:17.273Z,12.78
2022-11-20T03:47:46.586Z,12.78
2022-11-20T03:50:15.192Z,12.80
2022-11-20T03:52:43.644Z,12.76
2022-11-20T03:55:11.846Z,12.81
2022-11-20T03:57:42.584Z,12.81
2022-11-20T04:00:11.418Z,12.71
2022-11-20T04:02:39.513Z,12.79
2022-11-20T04:05:08.001Z,12.77
2022-11-20T04:07:36.414Z,12.80
2022-11-20T04:10:05.265Z,12.77
2022-11-20T04:12:35.078Z,12.81
2022-11-20T04:15:03.277Z,12.83
2022-11-20T04:17:31.404Z,12.80
2022-11-20T04:19:59.933Z,12.84
2022-11-20T04:22:28.269Z,12.83
2022-11-20T04:24:56.440Z,12.80
2022-11-20T04:27:25.015Z,12.84
2022-11-20T04:29:54.028Z,12.86
2022-11-20T04:32:22.272Z,12.86
2022-11-20T04:35:10.127Z,12.87
2022-11-20T04:37:37.923Z,12.86
2022-11-20T04:40:07.434Z,12.82
2022-11-20T04:42:35.682Z,12.90
2022-11-20T04:45:03.733Z,12.88
2022-11-20T04:47:31.823Z,12.90
2022-11-20T04:49:59.848Z,12.91
2022-11-20T04:52:27.702Z,12.98
2022-11-20T04:54:56.155Z,12.93
2022-11-20T04:57:25.231Z,12.98
2022-11-20T04:59:54.047Z,13.02
2022-11-20T05:02:23.382Z,13.03
2022-11-20T05:04:51.277Z,13.02
2022-11-20T05:07:20.074Z,13.01
2022-11-20T05:09:48.210Z,13.04
2022-11-20T05:12:16.505Z,13.05
2022-11-20T05:14:44.509Z,13.05
2022-11-20T05:17:13.479Z,13.06
2022-11-20T05:19:41.516Z,13.06
2022-11-20T05:22:09.428Z,13.02
2022-11-20T05:24:37.503Z,13.05
2022-11-20T05:27:06.052Z,13.07
2022-11-20T05:29:34.190Z,13.03
2022-11-20T05:32:02.062Z,13.05
2022-11-20T05:34:30.257Z,13.05
2022-11-20T05:36:59.572Z,13.07
2022-11-20T05:39:27.659Z,13.06
2022-11-20T05:42:14.205Z,13.03
2022-11-20T05:44:41.919Z,13.07
2022-11-20T05:47:09.834Z,13.01
2022-11-20T05:49:37.596Z,13.05
2022-11-20T05:52:05.681Z,13.08
2022-11-20T05:54:33.881Z,13.08
2022-11-20T05:57:01.739Z,13.11
2022-11-20T05:59:30.269Z,13.12
2022-11-20T06:01:58.374Z,13.10
2022-11-20T06:04:26.343Z,13.08
2022-11-20T06:06:54.489Z,13.08
2022-11-20T06:09:22.868Z,13.09
2022-11-20T06:11:50.775Z,13.06
2022-11-20T06:14:20.028Z,13.08
2022-11-20T06:16:48.547Z,13.09
2022-11-20T06:19:18.204Z,13.05
2022-11-20T06:21:46.448Z,13.03
2022-11-20T06:24:14.648Z,13.06
2022-11-20T06:26:43.636Z,13.05
2022-11-20T06:29:11.741Z,13.04
2022-11-20T06:31:42.017Z,13.05
2022-11-20T06:34:10.638Z,13.01
2022-11-20T06:36:39.498Z,12.99
2022-11-20T06:39:08.482Z,12.99
2022-11-20T06:41:37.724Z,12.94
2022-11-20T06:44:06.703Z,12.97
2022-11-20T06:46:35.028Z,12.95
2022-11-20T06:49:02.868Z,12.94
2022-11-20T06:51:31.048Z,12.97
2022-11-20T06:53:58.957Z,12.98
2022-11-20T06:56:26.662Z,12.99
2022-11-20T06:58:54.761Z,13.00
2022-11-20T07:01:23.105Z,12.96
2022-11-20T07:03:54.463Z,13.01
2022-11-20T07:06:22.528Z,13.03
2022-11-20T07:08:53.851Z,13.01
2022-11-20T07:11:22.049Z,12.99
2022-11-20T07:13:50.195Z,12.94
2022-11-20T07:16:18.689Z,13.00
2022-11-20T07:18:50.588Z,13.02
2022-11-20T07:21:19.144Z,13.03
2022-11-20T07:23:47.695Z,13.05
2022-11-20T07:26:15.949Z,13.07
2022-11-20T07:28:46.507Z,13.08
2022-11-20T07:31:19.075Z,13.09
2022-11-20T07:33:47.699Z,13.03
2022-11-20T07:36:19.472Z,13.10
2022-11-20T07:38:55.348Z,13.10
2022-11-20T07:41:23.297Z,13.12
2022-11-20T07:43:51.109Z,13.11
2022-11-20T07:46:19.443Z,13.11
2022-11-20T07:48:47.419Z,13.08
2022-11-20T07:51:15.504Z,13.10
2022-11-20T07:53:43.404Z,13.08
2022-11-20T07:56:11.260Z,13.09
2022-11-20T07:58:39.147Z,13.06
2022-11-20T08:01:09.099Z,13.07
2022-11-20T08:03:40.308Z,13.07
2022-11-20T08:06:08.923Z,13.08
2022-11-20T08:08:42.295Z,13.07
2022-11-20T08:11:29.524Z,13.05
2022-11-20T08:14:12.734Z,12.99
2022-11-20T08:16:46.630Z,13.07
2022-11-20T08:19:21.046Z,13.12
2022-11-20T08:21:49.177Z,13.10
2022-11-20T08:24:17.052Z,13.11
2022-11-20T08:26:45.914Z,13.16
2022-11-20T08:29:14.992Z,13.14
2022-11-20T08:31:43.082Z,13.06
2022-11-20T08:34:13.862Z,13.15
2022-11-20T08:36:45.591Z,13.13
2022-11-20T08:39:15.090Z,13.15
2022-11-20T08:41:42.991Z,13.13
2022-11-20T08:44:11.126Z,13.12
2022-11-20T08:46:42.531Z,13.11
2022-11-20T08:49:13.456Z,13.13
2022-11-20T08:51:42.295Z,13.13
2022-11-20T08:54:10.838Z,13.16
2022-11-20T08:56:38.685Z,13.18
2022-11-20T09:01:54.593Z,13.18
2022-11-20T09:04:22.469Z,13.20
2022-11-20T09:06:52.314Z,13.26
2022-11-20T09:09:21.605Z,13.28
2022-11-20T09:11:51.000Z,13.28
2022-11-20T09:14:18.799Z,13.29
2022-11-20T09:16:47.807Z,13.33
2022-11-20T09:22:04.311Z,13.31
2022-11-20T09:24:32.541Z,13.34
2022-11-20T09:27:04.441Z,13.38
2022-11-20T09:29:32.464Z,13.42
2022-11-20T09:32:00.440Z,13.48
2022-11-20T09:34:29.616Z,13.48
2022-11-20T09:37:01.553Z,13.44
2022-11-20T09:39:32.780Z,13.62
2022-11-20T09:42:16.306Z,13.68
2022-11-20T09:45:23.188Z,13.68
2022-11-20T09:48:53.667Z,13.71
2022-11-20T09:52:13.804Z,13.75
2022-11-20T09:54:45.554Z,13.81
2022-11-20T09:57:18.967Z,13.65
2022-11-20T10:00:02.094Z,13.72
2022-11-20T10:02:59.131Z,13.76
2022-11-20T10:05:53.538Z,13.72
2022-11-20T10:08:26.199Z,13.72
2022-11-20T10:11:17.041Z,13.72
2022-11-20T10:14:03.306Z,13.68
2022-11-20T10:16:52.907Z,13.66
2022-11-20T10:20:19.853Z,13.64
2022-11-20T10:23:04.631Z,13.61
2022-11-20T10:25:42.016Z,13.64
2022-11-20T10:28:59.879Z,13.64
2022-11-20T10:32:21.411Z,13.66
2022-11-20T10:35:21.234Z,13.71
2022-11-20T10:37:59.451Z,13.76
2022-11-20T10:40:44.561Z,13.83
2022-11-20T10:43:28.513Z,13.85
2022-11-20T10:46:06.041Z,13.90
2022-11-20T10:48:34.280Z,13.93
2022-11-20T10:51:38.040Z,14.04
2022-11-20T10:54:55.222Z,14.03
2022-11-20T10:57:55.046Z,14.11
2022-11-20T11:00:23.491Z,14.14
2022-11-20T11:02:57.371Z,14.23
2022-11-20T11:05:55.107Z,14.29
2022-11-20T11:08:24.746Z,14.29
2022-11-20T11:10:58.862Z,14.39
2022-11-20T11:13:30.436Z,14.45
2022-11-20T11:15:59.758Z,14.51
2022-11-20T11:18:34.537Z,14.53
2022-11-20T11:21:06.225Z,14.57
2022-11-20T11:23:40.996Z,14.59
2022-11-20T11:26:22.892Z,14.63
2022-11-20T11:29:04.367Z,14.65
2022-11-20T11:31:36.202Z,14.67
2022-11-20T11:34:15.842Z,14.68
2022-11-20T11:36:58.495Z,14.74
2022-11-20T11:39:29.998Z,14.74
2022-11-20T11:41:59.768Z,14.58
2022-11-20T11:44:54.032Z,14.66
2022-11-20T11:47:42.434Z,14.66
2022-11-20T11:50:10.531Z,14.63
2022-11-20T11:52:57.559Z,14.66
2022-11-20T11:56:05.495Z,14.67
2022-11-20T11:58:53.827Z,14.71
2022-11-20T12:01:42.176Z,14.80
2022-11-20T12:04:40.312Z,14.85
2022-11-20T12:07:51.684Z,14.92
2022-11-20T12:10:37.255Z,14.92
2022-11-20T12:13:35.291Z,14.99
2022-11-20T12:16:05.646Z,14.97
2022-11-20T12:18:35.086Z,15.01
2022-11-20T12:21:30.006Z,15.08
2022-11-20T12:24:35.709Z,15.07
2022-11-20T12:27:21.753Z,15.10
2022-11-20T12:29:59.230Z,15.08
2022-11-20T12:32:50.044Z,15.06
2022-11-20T12:35:46.508Z,15.00
2022-11-20T12:39:20.400Z,14.89
2022-11-20T12:42:30.217Z,14.89
2022-11-20T12:45:30.538Z,14.85
2022-11-20T12:48:23.834Z,14.79
2022-11-20T12:51:20.384Z,14.75
2022-11-20T12:54:29.135Z,14.76
2022-11-20T12:57:15.607Z,14.75
2022-11-20T13:00:19.136Z,14.72
2022-11-20T13:03:31.341Z,14.72
2022-11-20T13:06:14.325Z,14.70
2022-11-20T13:08:55.943Z,14.68
2022-11-20T13:11:51.997Z,14.69
2022-11-20T13:15:07.833Z,14.66
2022-11-20T13:17:47.715Z,14.63
2022-11-20T13:20:20.803Z,14.65
2022-11-20T13:23:02.656Z,14.68
2022-11-20T13:25:31.637Z,14.63
2022-11-20T13:28:20.822Z,14.63
2022-11-20T13:30:54.879Z,14.65
2022-11-20T13:33:37.062Z,14.71
2022-11-20T13:36:24.300Z,14.67
2022-11-20T13:38:56.142Z,14.59
2022-11-20T13:41:35.719Z,14.64
2022-11-20T13:44:10.777Z,14.63
2022-11-20T13:46:48.090Z,14.63
2022-11-20T13:49:45.275Z,14.60
2022-11-20T13:52:29.457Z,14.51
2022-11-20T13:55:03.618Z,14.45
2022-11-20T13:57:37.082Z,14.41
2022-11-20T14:00:25.752Z,14.43
2022-11-20T14:03:13.872Z,14.38
2022-11-20T14:05:54.098Z,14.40
2022-11-20T14:08:32.443Z,14.42
2022-11-20T14:11:26.631Z,14.40
2022-11-20T14:14:07.096Z,14.40
2022-11-20T14:16:40.216Z,14.36
2022-11-20T14:19:30.895Z,14.37
2022-11-20T14:22:24.657Z,14.33
2022-11-20T14:25:16.722Z,14.30
2022-11-20T14:27:51.695Z,14.26
2022-11-20T14:30:34.414Z,14.26
2022-11-20T14:33:05.271Z,14.22
2022-11-20T14:35:42.210Z,14.18
2022-11-20T14:38:15.617Z,14.17
2022-11-20T14:40:44.785Z,14.17
2022-11-20T14:43:29.252Z,14.18
2022-11-20T14:46:05.671Z,14.15
2022-11-20T14:49:01.484Z,14.15
2022-11-20T14:51:33.818Z,14.12
2022-11-20T14:54:23.554Z,14.15
2022-11-20T14:57:06.014Z,14.15
2022-11-20T14:59:36.912Z,14.13
2022-11-20T15:02:10.134Z,14.18
2022-11-20T15:04:52.848Z,14.19
2022-11-20T15:07:31.190Z,14.19
2022-11-20T15:10:04.001Z,14.16
2022-11-20T15:12:35.212Z,14.11
2022-11-20T15:15:06.703Z,14.13
2022-11-20T15:17:39.614Z,14.10
2022-11-20T15:20:18.159Z,14.07
2022-11-20T15:22:46.067Z,14.09
2022-11-20T15:25:19.595Z,14.11
2022-11-20T15:27:58.994Z,14.12
2022-11-20T15:30:29.304Z,14.07
2022-11-20T15:32:57.704Z,14.09
2022-11-20T15:35:26.144Z,14.08
2022-11-20T15:37:54.556Z,14.10
2022-11-20T15:40:23.136Z,14.11
2022-11-20T15:43:13.394Z,14.13
2022-11-20T15:45:49.865Z,14.13
2022-11-20T15:48:22.873Z,14.15
2022-11-20T15:51:08.276Z,14.17
2022-11-20T15:53:41.231Z,14.13
2022-11-20T15:56:18.474Z,14.20
2022-11-20T15:58:48.222Z,14.18
2022-11-20T16:01:21.126Z,14.23
2022-11-20T16:03:50.218Z,14.22
2022-11-20T16:06:18.530Z,14.18
2022-11-20T16:08:49.480Z,14.24
2022-11-20T16:11:19.439Z,14.26
2022-11-20T16:14:07.090Z,14.26
2022-11-20T16:16:40.190Z,14.24
2022-11-20T16:19:13.962Z,14.29
2022-11-20T16:21:42.978Z,14.28
2022-11-20T16:24:14.937Z,14.27
2022-11-20T16:26:43.335Z,14.26
2022-11-20T16:29:12.706Z,14.29
2022-11-20T16:32:00.432Z,14.27
2022-11-20T16:34:28.593Z,14.28
2022-11-20T16:36:56.710Z,14.25
2022-11-20T16:39:26.432Z,14.27
2022-11-20T16:41:54.275Z,14.20
2022-11-20T16:44:23.380Z,14.18
2022-11-20T16:46:51.656Z,14.16
2022-11-20T16:49:20.171Z,14.23
2022-11-20T16:51:48.539Z,14.21
2022-11-20T16:54:20.775Z,14.21
2022-11-20T16:56:52.238Z,14.22
2022-11-20T16:59:20.482Z,14.14
2022-11-20T17:01:48.973Z,14.19
2022-11-20T17:04:19.549Z,14.21
2022-11-20T17:06:48.306Z,14.21
2022-11-20T17:09:16.760Z,14.20
2022-11-20T17:11:46.816Z,14.23
2022-11-20T17:14:16.292Z,14.20
2022-11-20T17:16:45.467Z,14.24
2022-11-20T17:19:17.054Z,14.25
2022-11-20T17:21:48.205Z,14.22
2022-11-20T17:24:17.826Z,14.20
2022-11-20T17:26:49.284Z,14.25
2022-11-20T17:29:24.400Z,14.26
2022-11-20T17:31:55.148Z,14.21
2022-11-20T17:34:28.211Z,14.26
2022-11-20T17:36:59.616Z,14.27
2022-11-20T17:39:28.287Z,14.27
2022-11-20T17:42:15.025Z,14.22
2022-11-20T17:44:44.656Z,14.18
2022-11-20T17:47:12.817Z,14.19
2022-11-20T17:49:41.773Z,14.17
2022-11-20T17:52:10.103Z,14.18
2022-11-20T17:54:38.963Z,14.18
2022-11-20T17:57:27.735Z,14.17
2022-11-20T17:59:56.415Z,14.15
2022-11-20T18:02:25.412Z,14.16
2022-11-20T18:04:55.237Z,14.15
2022-11-20T18:07:26.612Z,14.10
2022-11-20T18:09:55.778Z,14.07
2022-11-20T18:12:25.511Z,14.07
2022-11-20T18:14:55.561Z,14.02
2022-11-20T18:17:26.869Z,14.04
2022-11-20T18:20:21.608Z,13.82
2022-11-20T18:22:44.222Z,13.87
2022-11-20T18:25:13.499Z,13.88
2022-11-20T18:27:42.495Z,13.85
2022-11-20T18:30:13.083Z,13.79
2022-11-20T18:32:43.246Z,13.76
2022-11-20T18:35:12.629Z,13.80
2022-11-20T18:37:43.024Z,13.72
2022-11-20T18:40:13.217Z,13.66
2022-11-20T18:43:01.322Z,13.55
2022-11-20T18:45:30.558Z,13.50
2022-11-20T18:47:59.353Z,13.48
2022-11-20T18:50:28.072Z,13.45
2022-11-20T18:52:57.707Z,13.43
2022-11-20T18:55:30.663Z,13.39
2022-11-20T18:58:05.510Z,13.32
2022-11-20T19:00:35.269Z,13.23
2022-11-20T19:03:06.426Z,13.27
2022-11-20T19:05:51.993Z,13.22
2022-11-20T19:08:27.877Z,13.12
2022-11-20T19:11:06.706Z,13.12
2022-11-20T19:13:37.523Z,13.09
2022-11-20T19:16:20.311Z,13.10
2022-11-20T19:18:57.247Z,13.07
2022-11-20T19:21:30.237Z,13.09
2022-11-20T19:24:03.415Z,13.13
2022-11-20T19:26:35.368Z,13.12
2022-11-20T19:29:25.987Z,13.16
2022-11-20T19:31:56.507Z,13.11
2022-11-20T19:34:29.053Z,13.15
2022-11-20T19:36:57.829Z,13.10
2022-11-20T19:39:27.624Z,13.14
2022-11-20T19:41:55.951Z,13.12
2022-11-20T19:44:24.877Z,13.13
2022-11-20T19:46:53.789Z,13.10
2022-11-20T19:49:22.454Z,13.09
2022-11-20T19:51:51.644Z,13.05
2022-11-20T19:54:23.291Z,13.06
2022-11-20T19:56:52.190Z,13.03
2022-11-20T19:59:20.511Z,13.03
2022-11-20T20:01:48.502Z,13.03
2022-11-20T20:04:16.804Z,13.05
2022-11-20T20:06:45.214Z,13.11
2022-11-20T20:09:13.942Z,13.09
2022-11-20T20:11:47.099Z,13.15
2022-11-20T20:14:18.533Z,13.15
2022-11-20T20:16:47.236Z,13.13
2022-11-20T20:19:16.394Z,13.11
2022-11-20T20:21:45.066Z,13.14
2022-11-20T20:24:14.250Z,13.15
2022-11-20T20:26:43.003Z,13.10
2022-11-20T20:29:12.073Z,13.09
2022-11-20T20:31:41.348Z,13.04
2022-11-20T20:34:11.462Z,13.04
2022-11-20T20:36:39.498Z,12.97
2022-11-20T20:39:07.498Z,13.00
2022-11-20T20:41:36.427Z,12.95
2022-11-20T20:44:22.956Z,12.97
2022-11-20T20:46:54.196Z,12.86
2022-11-20T20:49:25.506Z,12.87
2022-11-20T20:51:54.190Z,12.77
2022-11-20T20:54:22.149Z,12.82
2022-11-20T20:56:51.987Z,12.81
2022-11-20T20:59:20.121Z,12.79
2022-11-20T21:01:48.833Z,12.75
2022-11-20T21:04:17.660Z,12.78
2022-11-20T21:06:47.203Z,12.77
2022-11-20T21:09:15.487Z,12.80
2022-11-20T21:11:43.913Z,12.81
2022-11-20T21:14:12.725Z,12.84
2022-11-20T21:16:44.205Z,12.81
2022-11-20T21:19:12.266Z,12.68
2022-11-20T21:21:59.119Z,12.75
2022-11-20T21:24:28.759Z,12.79
2022-11-20T21:26:58.367Z,12.76
2022-11-20T21:29:28.473Z,12.71
2022-11-20T21:31:57.840Z,12.76
2022-11-20T21:34:26.439Z,12.77
2022-11-20T21:36:54.613Z,12.71
2022-11-20T21:39:22.811Z,12.73
2022-11-20T21:41:50.612Z,12.73
2022-11-20T21:44:33.836Z,12.74
2022-11-20T21:47:01.865Z,12.79
2022-11-20T21:49:29.711Z,12.81
2022-11-20T21:51:59.006Z,12.82
2022-11-20T21:54:27.082Z,12.81
2022-11-20T21:56:55.591Z,12.82
2022-11-20T21:59:23.881Z,12.80
2022-11-20T22:01:52.346Z,12.79
2022-11-20T22:04:21.452Z,12.78
2022-11-20T22:06:49.443Z,12.78
2022-11-20T22:09:17.306Z,12.76
2022-11-20T22:11:45.499Z,12.71
2022-11-20T22:14:23.749Z,12.72
2022-11-20T22:16:53.554Z,12.67
2022-11-20T22:19:23.399Z,12.63
2022-11-20T22:21:51.664Z,12.67
2022-11-20T22:24:22.288Z,12.69
2022-11-20T22:26:50.488Z,12.63
2022-11-20T22:29:38.534Z,12.64
2022-11-20T22:32:06.362Z,12.64
2022-11-20T22:34:34.396Z,12.62
2022-11-20T22:37:03.281Z,12.59
2022-11-20T22:39:31.222Z,12.52
2022-11-20T22:42:13.460Z,12.47
2022-11-20T22:44:41.429Z,12.53
2022-11-20T22:47:11.463Z,12.53
2022-11-20T22:49:40.825Z,12.47
2022-11-20T22:52:08.774Z,12.50
2022-11-20T22:54:36.599Z,12.44
2022-11-20T22:57:04.974Z,12.42
2022-11-20T22:59:32.950Z,12.50
2022-11-20T23:02:00.974Z,12.50
2022-11-20T23:04:28.784Z,12.51
2022-11-20T23:06:56.879Z,12.44
2022-11-20T23:09:25.197Z,12.55
2022-11-20T23:11:53.228Z,12.54
2022-11-20T23:14:26.350Z,12.54
2022-11-20T23:16:55.920Z,12.45
2022-11-20T23:19:24.444Z,12.54
2022-11-20T23:21:52.513Z,12.40
2022-11-20T23:24:20.400Z,12.49
2022-11-20T23:26:49.709Z,12.49
2022-11-20T23:29:18.112Z,12.39
2022-11-20T23:31:46.772Z,12.47
2022-11-20T23:34:14.751Z,12.47
2022-11-20T23:36:43.382Z,12.49
2022-11-20T23:39:11.317Z,12.48
2022-11-20T23:41:39.454Z,12.42
2022-11-20T23:44:07.641Z,12.49
2022-11-20T23:46:35.560Z,12.46
2022-11-20T23:49:03.848Z,12.53
2022-11-20T23:51:31.808Z,12.53
2022-11-20T23:54:04.478Z,12.53
2022-11-20T23:56:32.912Z,12.47
2022-11-20T23:59:00.706Z,12.52
